Accueil
METAR-TAF:

METAR-TAF

Aéroports :

Le Helder, Pays-Bas

latitude: 52-55N, longitude: 004-47E, altitude: 0 m

Observation

Le bulletin a été fait il y a 18 minutes, à 08:55 UTC
Vent 11 kt de nord/nord-est, variant entre nord et est/nord-est
Température 9°C
Humidité 57%
Pression 1028 hPa
Visibilité 10 km ou plus

METAR: EHKD 170855Z AUTO 03011KT 350V070 9999 NCD 09/01 Q1028 BLU NOSIG

Heure: 11:13 (09:13 UTC)

Prévision

Le bulletin a été fait il y a 5 heures et 7 minutes, à 04:06 UTC
Prévision valable du 17 à 05 UTC au 17 à 17 UTC
Vent 6 kt de nord
Visibilité 10 km ou plus
pas de nuages en-dessous de 1500 mètres et pas de cumulonimbus.
Temporairement
du 17 à 09 UTC au 17 à 15 UTC
Vent 10 kt de nord avec des rafales jusqu'à 20 kt

TAF: EHKD 170406Z 1705/1717 01006KT CAVOK TEMPO 1709/1715 01010G20KT

Observations et prévisions météorologiques de plus de 4000 aéroports (messages METAR et TAF).

Les stations disponibles sont représentées par des disques jaunes et rouges sur la carte.

Passer la souris dessus pour voir le nom de la station.

Cliquer dessus pour voir les observations et prévisions météorologiques.

Pour changer de carte: cliquez sur les boutons verts avec une croix noire pour zoomer, sur le bouton vert avec un tiret pour effectuer un zoom arrière, ou sur les flèches vertes pour les cartes adjacentes.


METAR-TAF: